Millbach, Pennsylvania
Current Conditions -  °F | °C
As of 8:53 PM on Thursday 20 Nov 2014 (Local Time) from KLNS Reporting Station
Clear Clear  
Wind Chill: 20°   Ceiling: Unl
Heat Index: 30°   Visibility: 10mi
Dew Point: 10°   Wind: 14mph
Humidity: 43%   Direction: 310°NW
Pressure: 30.04"   Gusts: NA
Location:  40.3035°N, 76.254°W
Report Text: KLNS 210153Z 31012KT 10SM CLR M01/M12 A3004 RMK AO2 SLP175 T10111122
Loading
Personal Weather Stations






























Interactive Weather Map New forecast layout! Learn more

10-Day Weather Forecast

Advertisements
Track Severe Weather on mobile